CheckWX is a tool to help pilots better visualize weather data.  It is not intended as a substitute for an official pre-flight weather briefing.

19:00:36 UTC

CYLH METAR
Lansdowne House Airport
Lansdowne House, Canada
Current

34 mins ago

CYLH 221827Z AUTO 00000KT 5SM -SN OVC035 M08/M11 A3015 RMK SLP235
Observed
Feb-22 @ 18:27 UTC
Visibility
5 SM
Flight Rules
MVFR
Conditions
Light Snow
Cloud Levels
  • Overcast at 3,500' AGL
Temperature
-8°C / 18°F
Dewpoint
-11°C / 12°F
Humidity
79%
Altimeter
30.15" Hg
Pressure
1023.5 hPa
Previous

55 mins ago

CYLH 221806Z AUTO VRB02KT 6SM -SN OVC033 M08/M11 A3015 RMK SLP236
Observed
Feb-22 @ 18:06 UTC
Wind
  • Variable at 2 KTS
Visibility
6 SM
Flight Rules
VFR
Conditions
Light Snow
Cloud Levels
  • Overcast at 3,300' AGL
Temperature
-8°C / 18°F
Dewpoint
-11°C / 12°F
Humidity
79%
Altimeter
30.15" Hg
Pressure
1023.6 hPa
Previous

1 hour ago

CYLH 221731Z AUTO VRB02KT 5SM -SN BKN032 OVC040 M10/M12 A3016 RMK SLP240
Observed
Feb-22 @ 17:31 UTC
Wind
  • Variable at 2 KTS
Visibility
5 SM
Flight Rules
MVFR
Conditions
Light Snow
Cloud Levels
  • Broken at 3,200' AGL
  • Overcast at 4,000' AGL
Temperature
-10°C / 14°F
Dewpoint
-12°C / 10°F
Humidity
85%
Altimeter
30.16" Hg
Pressure
1024 hPa